sensor_id;sensor_type;location;lat;lon;timestamp;pressure;altitude;pressure_sealevel;temperature;humidity
80712;BME280;70078;51.596;5.678;2023-07-13T00:00:46;101261.50;;;15.05;68.46
80712;BME280;70078;51.596;5.678;2023-07-13T00:03:11;101279.75;;;15.10;68.51
80712;BME280;70078;51.596;5.678;2023-07-13T00:05:39;101295.63;;;15.19;68.80
80712;BME280;70078;51.596;5.678;2023-07-13T00:08:05;101294.88;;;15.25;68.53
80712;BME280;70078;51.596;5.678;2023-07-13T00:10:30;101319.06;;;15.40;68.22
80712;BME280;70078;51.596;5.678;2023-07-13T00:12:56;101311.38;;;15.37;68.31
80712;BME280;70078;51.596;5.678;2023-07-13T00:15:24;101278.56;;;15.12;68.52
80712;BME280;70078;51.596;5.678;2023-07-13T00:17:51;101306.56;;;15.33;69.05
80712;BME280;70078;51.596;5.678;2023-07-13T00:20:17;101286.63;;;15.12;69.02
80712;BME280;70078;51.596;5.678;2023-07-13T00:22:43;101283.84;;;15.06;68.96
80712;BME280;70078;51.596;5.678;2023-07-13T00:25:11;101300.00;;;15.20;69.10
80712;BME280;70078;51.596;5.678;2023-07-13T00:27:37;101300.53;;;15.16;69.06
80712;BME280;70078;51.596;5.678;2023-07-13T00:30:03;101272.91;;;14.92;69.58
80712;BME280;70078;51.596;5.678;2023-07-13T00:32:28;101321.69;;;15.19;69.40
80712;BME280;70078;51.596;5.678;2023-07-13T00:34:55;101313.06;;;15.23;69.54
80712;BME280;70078;51.596;5.678;2023-07-13T00:37:21;101312.72;;;15.26;69.68
80712;BME280;70078;51.596;5.678;2023-07-13T00:39:47;101292.38;;;15.09;69.83
80712;BME280;70078;51.596;5.678;2023-07-13T00:42:12;101296.28;;;15.07;69.81
80712;BME280;70078;51.596;5.678;2023-07-13T00:44:37;101288.84;;;15.09;70.16
80712;BME280;70078;51.596;5.678;2023-07-13T00:47:05;101297.28;;;15.06;70.63
80712;BME280;70078;51.596;5.678;2023-07-13T00:49:32;101318.00;;;15.20;70.07
80712;BME280;70078;51.596;5.678;2023-07-13T00:52:02;101305.16;;;14.92;70.63
80712;BME280;70078;51.596;5.678;2023-07-13T00:54:34;101331.97;;;15.15;70.54
80712;BME280;70078;51.596;5.678;2023-07-13T00:57:05;101312.13;;;15.02;70.91
80712;BME280;70078;51.596;5.678;2023-07-13T00:59:34;101304.50;;;14.90;70.96
80712;BME280;70078;51.596;5.678;2023-07-13T01:01:59;101312.75;;;15.04;70.90
80712;BME280;70078;51.596;5.678;2023-07-13T01:04:25;101308.97;;;14.98;70.90
80712;BME280;70078;51.596;5.678;2023-07-13T01:06:51;101328.88;;;15.04;71.42
80712;BME280;70078;51.596;5.678;2023-07-13T01:09:17;101309.31;;;14.95;71.33
80712;BME280;70078;51.596;5.678;2023-07-13T01:11:43;101317.88;;;14.98;71.11
80712;BME280;70078;51.596;5.678;2023-07-13T01:14:10;101303.50;;;14.91;71.42
80712;BME280;70078;51.596;5.678;2023-07-13T01:16:37;101322.53;;;15.05;71.55
80712;BME280;70078;51.596;5.678;2023-07-13T01:19:47;101310.75;;;15.06;71.27
80712;BME280;70078;51.596;5.678;2023-07-13T01:22:22;101321.13;;;15.09;71.37
80712;BME280;70078;51.596;5.678;2023-07-13T01:24:51;101332.16;;;14.99;71.76
80712;BME280;70078;51.596;5.678;2023-07-13T01:27:20;101327.88;;;14.90;72.11
80712;BME280;70078;51.596;5.678;2023-07-13T01:29:46;101327.50;;;14.93;71.95
80712;BME280;70078;51.596;5.678;2023-07-13T01:32:18;101311.06;;;14.88;72.11
80712;BME280;70078;51.596;5.678;2023-07-13T01:34:48;101312.94;;;14.87;72.03
80712;BME280;70078;51.596;5.678;2023-07-13T01:37:14;101325.44;;;14.95;72.33
80712;BME280;70078;51.596;5.678;2023-07-13T01:39:40;101294.56;;;14.76;72.30
80712;BME280;70078;51.596;5.678;2023-07-13T01:42:05;101310.91;;;14.89;72.36
80712;BME280;70078;51.596;5.678;2023-07-13T01:44:31;101305.88;;;14.86;72.48
80712;BME280;70078;51.596;5.678;2023-07-13T01:46:57;101313.41;;;14.91;72.36
80712;BME280;70078;51.596;5.678;2023-07-13T01:49:22;101318.41;;;14.94;72.43
80712;BME280;70078;51.596;5.678;2023-07-13T01:51:48;101338.72;;;14.96;72.57
80712;BME280;70078;51.596;5.678;2023-07-13T01:54:13;101334.66;;;15.01;72.73
80712;BME280;70078;51.596;5.678;2023-07-13T01:56:38;101333.09;;;15.06;72.43
80712;BME280;70078;51.596;5.678;2023-07-13T01:59:04;101331.31;;;14.98;72.77
80712;BME280;70078;51.596;5.678;2023-07-13T02:01:30;101331.66;;;14.95;73.07
80712;BME280;70078;51.596;5.678;2023-07-13T02:03:55;101331.09;;;14.85;73.20
80712;BME280;70078;51.596;5.678;2023-07-13T02:06:20;101327.88;;;14.90;73.24
80712;BME280;70078;51.596;5.678;2023-07-13T02:08:46;101325.06;;;14.83;73.24
80712;BME280;70078;51.596;5.678;2023-07-13T02:11:11;101333.06;;;14.91;73.34
80712;BME280;70078;51.596;5.678;2023-07-13T02:13:37;101320.53;;;14.84;73.27
80712;BME280;70078;51.596;5.678;2023-07-13T02:16:03;101334.44;;;14.87;73.20
80712;BME280;70078;51.596;5.678;2023-07-13T02:18:28;101322.72;;;14.80;73.39
80712;BME280;70078;51.596;5.678;2023-07-13T02:20:54;101316.19;;;14.83;73.77
80712;BME280;70078;51.596;5.678;2023-07-13T02:23:19;101337.78;;;14.89;73.81
80712;BME280;70078;51.596;5.678;2023-07-13T02:25:45;101297.41;;;14.60;73.82
80712;BME280;70078;51.596;5.678;2023-07-13T02:28:11;101338.88;;;14.80;74.03
80712;BME280;70078;51.596;5.678;2023-07-13T02:30:36;101288.41;;;14.53;74.00
80712;BME280;70078;51.596;5.678;2023-07-13T02:33:02;101295.38;;;14.62;73.68
80712;BME280;70078;51.596;5.678;2023-07-13T02:35:28;101317.16;;;14.67;74.18
80712;BME280;70078;51.596;5.678;2023-07-13T02:37:53;101340.56;;;14.81;74.30
80712;BME280;70078;51.596;5.678;2023-07-13T02:40:19;101282.72;;;14.48;74.66
80712;BME280;70078;51.596;5.678;2023-07-13T02:42:44;101311.19;;;14.57;74.98
80712;BME280;70078;51.596;5.678;2023-07-13T02:45:10;101294.50;;;14.47;74.90
80712;BME280;70078;51.596;5.678;2023-07-13T02:47:35;101335.41;;;14.71;75.09
80712;BME280;70078;51.596;5.678;2023-07-13T02:50:02;101344.88;;;14.67;75.36
80712;BME280;70078;51.596;5.678;2023-07-13T02:52:27;101348.31;;;14.76;74.92
80712;BME280;70078;51.596;5.678;2023-07-13T02:54:52;101339.00;;;14.64;75.39
80712;BME280;70078;51.596;5.678;2023-07-13T02:57:18;101318.16;;;14.51;75.43
80712;BME280;70078;51.596;5.678;2023-07-13T02:59:43;101315.63;;;14.50;75.74
80712;BME280;70078;51.596;5.678;2023-07-13T03:02:09;101332.34;;;14.60;75.57
80712;BME280;70078;51.596;5.678;2023-07-13T03:04:36;101354.94;;;14.65;75.72
80712;BME280;70078;51.596;5.678;2023-07-13T03:07:01;101343.91;;;14.60;75.87
80712;BME280;70078;51.596;5.678;2023-07-13T03:09:27;101351.50;;;14.57;75.64
80712;BME280;70078;51.596;5.678;2023-07-13T03:11:55;101336.94;;;14.43;75.83
80712;BME280;70078;51.596;5.678;2023-07-13T03:14:22;101352.81;;;14.61;76.07
80712;BME280;70078;51.596;5.678;2023-07-13T03:16:48;101363.19;;;14.64;75.87
80712;BME280;70078;51.596;5.678;2023-07-13T03:19:13;101296.38;;;14.15;76.37
80712;BME280;70078;51.596;5.678;2023-07-13T03:21:38;101358.59;;;14.50;76.34
80712;BME280;70078;51.596;5.678;2023-07-13T03:24:04;101349.25;;;14.46;76.74
80712;BME280;70078;51.596;5.678;2023-07-13T03:26:30;101332.25;;;14.45;76.64
80712;BME280;70078;51.596;5.678;2023-07-13T03:28:55;101339.81;;;14.41;76.65
80712;BME280;70078;51.596;5.678;2023-07-13T03:31:24;101350.72;;;14.48;76.66
80712;BME280;70078;51.596;5.678;2023-07-13T03:33:50;101343.41;;;14.34;77.05
80712;BME280;70078;51.596;5.678;2023-07-13T03:36:24;101365.66;;;14.42;77.19
80712;BME280;70078;51.596;5.678;2023-07-13T03:38:52;101350.28;;;14.36;77.03
80712;BME280;70078;51.596;5.678;2023-07-13T03:41:19;101337.44;;;14.24;77.30
80712;BME280;70078;51.596;5.678;2023-07-13T03:43:44;101354.09;;;14.42;77.17
80712;BME280;70078;51.596;5.678;2023-07-13T03:46:10;101370.84;;;14.52;77.04
80712;BME280;70078;51.596;5.678;2023-07-13T03:48:35;101370.38;;;14.40;77.16
80712;BME280;70078;51.596;5.678;2023-07-13T03:51:01;101360.00;;;14.37;77.55
80712;BME280;70078;51.596;5.678;2023-07-13T03:53:27;101368.53;;;14.41;77.42
80712;BME280;70078;51.596;5.678;2023-07-13T03:55:52;101362.56;;;14.31;77.76
80712;BME280;70078;51.596;5.678;2023-07-13T03:58:35;101375.28;;;14.37;77.93
80712;BME280;70078;51.596;5.678;2023-07-13T04:01:02;101382.47;;;14.44;78.27
80712;BME280;70078;51.596;5.678;2023-07-13T04:03:29;101390.19;;;14.48;77.91
80712;BME280;70078;51.596;5.678;2023-07-13T04:05:57;101375.75;;;14.40;78.33
80712;BME280;70078;51.596;5.678;2023-07-13T04:08:28;101353.38;;;14.25;78.44
80712;BME280;70078;51.596;5.678;2023-07-13T04:10:55;101390.50;;;14.53;78.19
80712;BME280;70078;51.596;5.678;2023-07-13T04:13:21;101360.00;;;14.37;78.38
80712;BME280;70078;51.596;5.678;2023-07-13T04:15:46;101393.84;;;14.55;78.42
80712;BME280;70078;51.596;5.678;2023-07-13T04:18:11;101377.09;;;14.44;78.54
80712;BME280;70078;51.596;5.678;2023-07-13T04:20:37;101370.06;;;14.43;78.72
80712;BME280;70078;51.596;5.678;2023-07-13T04:23:02;101398.50;;;14.61;78.31
80712;BME280;70078;51.596;5.678;2023-07-13T04:25:27;101401.44;;;14.74;78.22
80712;BME280;70078;51.596;5.678;2023-07-13T04:27:53;101411.44;;;14.80;78.33
80712;BME280;70078;51.596;5.678;2023-07-13T04:30:19;101364.34;;;14.69;77.93
80712;BME280;70078;51.596;5.678;2023-07-13T04:32:45;101378.41;;;14.71;78.20
80712;BME280;70078;51.596;5.678;2023-07-13T04:35:10;101376.56;;;14.72;77.84
80712;BME280;70078;51.596;5.678;2023-07-13T04:37:36;101361.16;;;14.66;78.65
80712;BME280;70078;51.596;5.678;2023-07-13T04:40:02;101374.81;;;14.79;78.70
80712;BME280;70078;51.596;5.678;2023-07-13T04:42:28;101405.38;;;15.01;78.42
80712;BME280;70078;51.596;5.678;2023-07-13T04:44:54;101384.25;;;14.98;78.48
80712;BME280;70078;51.596;5.678;2023-07-13T04:47:21;101422.81;;;15.28;77.80
80712;BME280;70078;51.596;5.678;2023-07-13T04:49:47;101418.91;;;15.31;77.84
80712;BME280;70078;51.596;5.678;2023-07-13T04:52:12;101422.72;;;15.36;77.64
80712;BME280;70078;51.596;5.678;2023-07-13T04:54:38;101407.31;;;15.30;77.75
80712;BME280;70078;51.596;5.678;2023-07-13T04:57:04;101405.25;;;15.32;77.66
80712;BME280;70078;51.596;5.678;2023-07-13T04:59:32;101385.03;;;15.21;77.67
80712;BME280;70078;51.596;5.678;2023-07-13T05:01:57;101381.50;;;15.21;78.31
80712;BME280;70078;51.596;5.678;2023-07-13T05:04:22;101422.44;;;15.61;78.07
80712;BME280;70078;51.596;5.678;2023-07-13T05:06:48;101375.56;;;15.40;78.08
80712;BME280;70078;51.596;5.678;2023-07-13T05:09:13;101437.25;;;15.79;78.00
80712;BME280;70078;51.596;5.678;2023-07-13T05:11:38;101420.63;;;15.76;78.20
80712;BME280;70078;51.596;5.678;2023-07-13T05:14:04;101440.50;;;15.90;78.02
80712;BME280;70078;51.596;5.678;2023-07-13T05:16:30;101417.47;;;15.87;77.72
80712;BME280;70078;51.596;5.678;2023-07-13T05:18:57;101419.41;;;15.93;77.80
80712;BME280;70078;51.596;5.678;2023-07-13T05:21:22;101424.53;;;16.03;78.00
80712;BME280;70078;51.596;5.678;2023-07-13T05:23:47;101430.88;;;16.17;77.30
80712;BME280;70078;51.596;5.678;2023-07-13T05:26:13;101425.25;;;16.12;77.42
80712;BME280;70078;51.596;5.678;2023-07-13T05:28:38;101434.56;;;16.30;77.47
80712;BME280;70078;51.596;5.678;2023-07-13T05:31:05;101438.78;;;16.33;77.35
80712;BME280;70078;51.596;5.678;2023-07-13T05:33:31;101429.66;;;16.34;77.43
80712;BME280;70078;51.596;5.678;2023-07-13T05:35:57;101453.69;;;16.50;76.91
80712;BME280;70078;51.596;5.678;2023-07-13T05:38:22;101445.94;;;16.47;76.98
80712;BME280;70078;51.596;5.678;2023-07-13T05:40:48;101449.75;;;16.53;77.36
80712;BME280;70078;51.596;5.678;2023-07-13T05:43:13;101458.38;;;16.63;77.02
80712;BME280;70078;51.596;5.678;2023-07-13T05:45:39;101459.47;;;16.69;77.06
80712;BME280;70078;51.596;5.678;2023-07-13T05:48:05;101443.84;;;16.79;75.92
80712;BME280;70078;51.596;5.678;2023-07-13T05:50:30;101439.44;;;16.71;75.84
80712;BME280;70078;51.596;5.678;2023-07-13T05:52:57;101467.84;;;16.74;76.82
80712;BME280;70078;51.596;5.678;2023-07-13T05:55:22;101417.94;;;16.63;75.86
80712;BME280;70078;51.596;5.678;2023-07-13T05:57:47;101441.72;;;16.74;76.14
80712;BME280;70078;51.596;5.678;2023-07-13T06:00:13;101439.22;;;16.73;76.57
80712;BME280;70078;51.596;5.678;2023-07-13T06:02:39;101461.25;;;16.98;76.18
80712;BME280;70078;51.596;5.678;2023-07-13T06:05:04;101475.88;;;17.10;75.86
80712;BME280;70078;51.596;5.678;2023-07-13T06:07:30;101483.00;;;17.17;75.29
80712;BME280;70078;51.596;5.678;2023-07-13T06:09:55;101460.66;;;17.02;75.06
80712;BME280;70078;51.596;5.678;2023-07-13T06:12:21;101484.53;;;17.27;74.85
80712;BME280;70078;51.596;5.678;2023-07-13T06:14:46;101458.53;;;17.19;74.08
80712;BME280;70078;51.596;5.678;2023-07-13T06:17:11;101491.09;;;17.39;75.37
80712;BME280;70078;51.596;5.678;2023-07-13T06:19:37;101483.97;;;17.31;75.16
80712;BME280;70078;51.596;5.678;2023-07-13T06:22:02;101479.97;;;17.27;74.82
80712;BME280;70078;51.596;5.678;2023-07-13T06:24:28;101452.50;;;17.17;74.65
80712;BME280;70078;51.596;5.678;2023-07-13T06:26:53;101494.00;;;17.44;74.48
80712;BME280;70078;51.596;5.678;2023-07-13T06:29:19;101500.06;;;17.46;74.75
80712;BME280;70078;51.596;5.678;2023-07-13T06:31:44;101491.84;;;17.54;74.25
80712;BME280;70078;51.596;5.678;2023-07-13T06:34:09;101493.06;;;17.80;73.95
80712;BME280;70078;51.596;5.678;2023-07-13T06:36:35;101491.88;;;17.89;74.10
80712;BME280;70078;51.596;5.678;2023-07-13T06:39:02;101495.88;;;17.93;73.66
80712;BME280;70078;51.596;5.678;2023-07-13T06:41:27;101491.50;;;17.98;72.66
80712;BME280;70078;51.596;5.678;2023-07-13T06:43:52;101487.34;;;17.96;73.19
80712;BME280;70078;51.596;5.678;2023-07-13T06:46:21;101486.81;;;18.07;72.81
80712;BME280;70078;51.596;5.678;2023-07-13T06:48:46;101474.31;;;18.06;72.00
80712;BME280;70078;51.596;5.678;2023-07-13T06:51:12;101500.16;;;18.15;72.61
80712;BME280;70078;51.596;5.678;2023-07-13T06:53:37;101502.63;;;18.17;72.74
80712;BME280;70078;51.596;5.678;2023-07-13T06:56:03;101516.81;;;18.25;72.41
80712;BME280;70078;51.596;5.678;2023-07-13T06:58:28;101479.53;;;18.08;72.46
80712;BME280;70078;51.596;5.678;2023-07-13T07:00:54;101498.31;;;18.22;72.08
80712;BME280;70078;51.596;5.678;2023-07-13T07:03:19;101500.16;;;18.15;72.04
80712;BME280;70078;51.596;5.678;2023-07-13T07:05:45;101511.41;;;18.25;72.14
80712;BME280;70078;51.596;5.678;2023-07-13T07:08:11;101481.06;;;18.23;71.74
80712;BME280;70078;51.596;5.678;2023-07-13T07:10:36;101484.00;;;18.35;70.91
80712;BME280;70078;51.596;5.678;2023-07-13T07:13:03;101508.81;;;18.45;71.42
80712;BME280;70078;51.596;5.678;2023-07-13T07:15:29;101510.69;;;18.45;71.31
80712;BME280;70078;51.596;5.678;2023-07-13T07:17:55;101521.31;;;18.53;71.57
80712;BME280;70078;51.596;5.678;2023-07-13T07:20:20;101518.84;;;18.65;71.06
80712;BME280;70078;51.596;5.678;2023-07-13T07:22:46;101512.59;;;18.64;70.46
80712;BME280;70078;51.596;5.678;2023-07-13T07:25:12;101529.81;;;18.50;70.46
80712;BME280;70078;51.596;5.678;2023-07-13T07:27:37;101527.06;;;18.43;70.63
80712;BME280;70078;51.596;5.678;2023-07-13T07:30:03;101524.03;;;18.53;71.43
80712;BME280;70078;51.596;5.678;2023-07-13T07:32:29;101500.28;;;18.48;69.98
80712;BME280;70078;51.596;5.678;2023-07-13T07:34:56;101522.34;;;18.52;70.82
80712;BME280;70078;51.596;5.678;2023-07-13T07:37:21;101516.53;;;18.55;70.85
80712;BME280;70078;51.596;5.678;2023-07-13T07:39:46;101518.72;;;18.79;70.72
80712;BME280;70078;51.596;5.678;2023-07-13T07:42:12;101533.75;;;19.02;70.73
80712;BME280;70078;51.596;5.678;2023-07-13T07:44:40;101530.84;;;19.10;69.12
80712;BME280;70078;51.596;5.678;2023-07-13T07:47:06;101533.59;;;19.23;68.94
80712;BME280;70078;51.596;5.678;2023-07-13T07:49:31;101510.25;;;19.22;69.07
80712;BME280;70078;51.596;5.678;2023-07-13T07:51:57;101511.06;;;19.09;69.19
80712;BME280;70078;51.596;5.678;2023-07-13T07:54:22;101533.59;;;19.36;68.65
80712;BME280;70078;51.596;5.678;2023-07-13T07:56:47;101516.72;;;19.34;69.29
80712;BME280;70078;51.596;5.678;2023-07-13T07:59:12;101512.97;;;19.42;69.03
80712;BME280;70078;51.596;5.678;2023-07-13T08:01:38;101517.16;;;19.45;68.13
80712;BME280;70078;51.596;5.678;2023-07-13T08:04:03;101503.41;;;19.39;67.90
80712;BME280;70078;51.596;5.678;2023-07-13T08:06:29;101510.06;;;19.50;67.43
80712;BME280;70078;51.596;5.678;2023-07-13T08:08:55;101518.84;;;19.59;66.88
80712;BME280;70078;51.596;5.678;2023-07-13T08:11:21;101525.50;;;19.83;66.76
80712;BME280;70078;51.596;5.678;2023-07-13T08:13:47;101502.16;;;19.75;66.28
80712;BME280;70078;51.596;5.678;2023-07-13T08:16:12;101533.16;;;20.12;66.33
80712;BME280;70078;51.596;5.678;2023-07-13T08:18:38;101542.47;;;20.30;66.35
80712;BME280;70078;51.596;5.678;2023-07-13T08:21:05;101524.72;;;20.40;65.61
80712;BME280;70078;51.596;5.678;2023-07-13T08:23:30;101495.34;;;20.24;65.05
80712;BME280;70078;51.596;5.678;2023-07-13T08:25:56;101527.59;;;20.59;64.58
80712;BME280;70078;51.596;5.678;2023-07-13T08:28:22;101504.03;;;20.53;63.81
80712;BME280;70078;51.596;5.678;2023-07-13T08:30:47;101496.09;;;20.51;64.74
80712;BME280;70078;51.596;5.678;2023-07-13T08:33:20;101497.53;;;20.54;62.62
80712;BME280;70078;51.596;5.678;2023-07-13T08:35:47;101539.22;;;20.72;63.33
80712;BME280;70078;51.596;5.678;2023-07-13T08:38:13;101520.19;;;21.11;62.75
80712;BME280;70078;51.596;5.678;2023-07-13T08:40:39;101533.81;;;21.60;61.05
80712;BME280;70078;51.596;5.678;2023-07-13T08:43:04;101534.69;;;21.79;59.23
80712;BME280;70078;51.596;5.678;2023-07-13T08:45:42;101506.41;;;21.87;60.11
80712;BME280;70078;51.596;5.678;2023-07-13T08:48:13;101503.63;;;22.12;59.89
80712;BME280;70078;51.596;5.678;2023-07-13T08:53:15;101513.97;;;21.85;58.64
80712;BME280;70078;51.596;5.678;2023-07-13T08:55:42;101521.81;;;21.93;55.90
80712;BME280;70078;51.596;5.678;2023-07-13T08:58:13;101533.38;;;22.07;55.97
80712;BME280;70078;51.596;5.678;2023-07-13T09:03:33;101527.03;;;22.50;56.41
80712;BME280;70078;51.596;5.678;2023-07-13T09:06:02;101529.50;;;22.69;56.36
80712;BME280;70078;51.596;5.678;2023-07-13T09:16:56;101520.75;;;21.94;55.91
80712;BME280;70078;51.596;5.678;2023-07-13T09:19:28;101513.53;;;22.25;55.51
80712;BME280;70078;51.596;5.678;2023-07-13T09:21:58;101500.97;;;22.60;54.17
80712;BME280;70078;51.596;5.678;2023-07-13T09:24:37;101530.63;;;23.10;53.36
80712;BME280;70078;51.596;5.678;2023-07-13T09:27:23;101538.97;;;22.85;52.71
80712;BME280;70078;51.596;5.678;2023-07-13T09:29:57;101527.84;;;22.68;54.93
80712;BME280;70078;51.596;5.678;2023-07-13T09:32:25;101506.06;;;22.87;53.07
80712;BME280;70078;51.596;5.678;2023-07-13T09:34:53;101531.50;;;23.22;54.04
80712;BME280;70078;51.596;5.678;2023-07-13T09:37:21;101531.00;;;23.67;51.85
80712;BME280;70078;51.596;5.678;2023-07-13T09:39:49;101510.25;;;23.90;50.99
80712;BME280;70078;51.596;5.678;2023-07-13T09:50:09;101527.56;;;24.59;48.69
80712;BME280;70078;51.596;5.678;2023-07-13T09:52:49;101516.31;;;25.01;50.78
80712;BME280;70078;51.596;5.678;2023-07-13T09:55:32;101537.28;;;25.40;47.08
80712;BME280;70078;51.596;5.678;2023-07-13T09:58:04;101514.41;;;25.13;47.41
80712;BME280;70078;51.596;5.678;2023-07-13T10:00:34;101527.66;;;25.38;47.49
80712;BME280;70078;51.596;5.678;2023-07-13T10:03:22;101513.41;;;25.53;45.71
80712;BME280;70078;51.596;5.678;2023-07-13T10:05:49;101493.84;;;25.61;46.16
80712;BME280;70078;51.596;5.678;2023-07-13T10:08:25;101531.34;;;25.77;46.13
80712;BME280;70078;51.596;5.678;2023-07-13T10:11:01;101544.22;;;25.65;44.25
80712;BME280;70078;51.596;5.678;2023-07-13T10:13:29;101539.34;;;25.67;45.44
80712;BME280;70078;51.596;5.678;2023-07-13T10:15:57;101518.97;;;25.41;44.50
80712;BME280;70078;51.596;5.678;2023-07-13T10:18:24;101525.94;;;25.32;46.12
80712;BME280;70078;51.596;5.678;2023-07-13T10:20:54;101530.47;;;25.26;45.97
80712;BME280;70078;51.596;5.678;2023-07-13T10:23:27;101533.81;;;25.62;46.67
80712;BME280;70078;51.596;5.678;2023-07-13T10:25:56;101535.50;;;26.02;46.03
80712;BME280;70078;51.596;5.678;2023-07-13T10:30:52;101519.56;;;25.26;45.08
80712;BME280;70078;51.596;5.678;2023-07-13T10:33:18;101492.81;;;25.00;44.35
80712;BME280;70078;51.596;5.678;2023-07-13T10:35:43;101528.25;;;24.95;46.30
80712;BME280;70078;51.596;5.678;2023-07-13T10:38:14;101518.00;;;25.02;44.60
80712;BME280;70078;51.596;5.678;2023-07-13T10:40:57;101539.06;;;25.68;44.84
80712;BME280;70078;51.596;5.678;2023-07-13T10:43:32;101525.09;;;25.31;44.50
80712;BME280;70078;51.596;5.678;2023-07-13T10:46:00;101499.19;;;25.17;46.21
80712;BME280;70078;51.596;5.678;2023-07-13T10:48:27;101510.59;;;25.14;45.91
80712;BME280;70078;51.596;5.678;2023-07-13T10:50:54;101519.53;;;25.09;45.00
80712;BME280;70078;51.596;5.678;2023-07-13T10:53:37;101516.19;;;25.07;46.69
80712;BME280;70078;51.596;5.678;2023-07-13T10:58:43;101534.34;;;24.85;45.52
80712;BME280;70078;51.596;5.678;2023-07-13T11:01:10;101549.53;;;24.64;45.76
80712;BME280;70078;51.596;5.678;2023-07-13T11:03:47;101551.94;;;24.49;45.67
80712;BME280;70078;51.596;5.678;2023-07-13T11:06:38;101561.81;;;24.15;47.65
80712;BME280;70078;51.596;5.678;2023-07-13T11:09:31;101584.00;;;23.83;47.86
80712;BME280;70078;51.596;5.678;2023-07-13T11:12:07;101558.16;;;23.32;49.70
80712;BME280;70078;51.596;5.678;2023-07-13T11:14:41;101590.63;;;23.87;51.46
80712;BME280;70078;51.596;5.678;2023-07-13T11:22:46;101578.16;;;24.03;50.43
80712;BME280;70078;51.596;5.678;2023-07-13T11:25:32;101589.28;;;24.72;50.49
80712;BME280;70078;51.596;5.678;2023-07-13T11:33:18;101570.81;;;25.53;47.51
80712;BME280;70078;51.596;5.678;2023-07-13T11:38:20;101546.28;;;25.91;46.73
80712;BME280;70078;51.596;5.678;2023-07-13T11:40:48;101568.63;;;26.22;45.12
80712;BME280;70078;51.596;5.678;2023-07-13T11:43:16;101552.88;;;26.51;44.36
80712;BME280;70078;51.596;5.678;2023-07-13T11:45:43;101578.72;;;26.82;42.86
80712;BME280;70078;51.596;5.678;2023-07-13T11:48:21;101581.72;;;26.59;42.43
80712;BME280;70078;51.596;5.678;2023-07-13T11:50:59;101568.38;;;26.23;41.70
80712;BME280;70078;51.596;5.678;2023-07-13T11:53:30;101564.72;;;26.57;42.80
80712;BME280;70078;51.596;5.678;2023-07-13T11:55:59;101532.25;;;26.43;44.83
80712;BME280;70078;51.596;5.678;2023-07-13T11:58:25;101586.47;;;26.90;43.28
80712;BME280;70078;51.596;5.678;2023-07-13T12:00:55;101582.75;;;26.52;42.50
80712;BME280;70078;51.596;5.678;2023-07-13T12:03:24;101569.50;;;26.66;43.33
80712;BME280;70078;51.596;5.678;2023-07-13T12:06:04;101580.06;;;26.58;43.42
80712;BME280;70078;51.596;5.678;2023-07-13T12:08:38;101573.59;;;26.25;43.64
80712;BME280;70078;51.596;5.678;2023-07-13T12:11:14;101547.03;;;26.04;43.80
80712;BME280;70078;51.596;5.678;2023-07-13T12:13:40;101572.28;;;25.72;45.31
80712;BME280;70078;51.596;5.678;2023-07-13T12:16:29;101583.25;;;25.43;47.48
80712;BME280;70078;51.596;5.678;2023-07-13T12:19:00;101584.34;;;24.85;50.80
80712;BME280;70078;51.596;5.678;2023-07-13T12:21:33;101589.78;;;24.57;51.12
80712;BME280;70078;51.596;5.678;2023-07-13T12:24:00;101592.06;;;24.37;52.42
80712;BME280;70078;51.596;5.678;2023-07-13T12:26:28;101578.06;;;24.09;53.24
80712;BME280;70078;51.596;5.678;2023-07-13T12:28:55;101582.59;;;23.80;52.79
80712;BME280;70078;51.596;5.678;2023-07-13T12:31:37;101583.56;;;23.44;54.70
80712;BME280;70078;51.596;5.678;2023-07-13T12:34:13;101575.34;;;23.33;54.92
80712;BME280;70078;51.596;5.678;2023-07-13T12:36:46;101549.00;;;23.15;55.18
80712;BME280;70078;51.596;5.678;2023-07-13T12:41:53;101561.28;;;23.47;53.74
80712;BME280;70078;51.596;5.678;2023-07-13T12:44:31;101566.44;;;23.67;56.14
80712;BME280;70078;51.596;5.678;2023-07-13T12:47:11;101575.69;;;24.37;55.93
80712;BME280;70078;51.596;5.678;2023-07-13T12:49:47;101568.34;;;24.77;53.66
80712;BME280;70078;51.596;5.678;2023-07-13T12:52:16;101570.22;;;25.17;53.23
80712;BME280;70078;51.596;5.678;2023-07-13T12:55:03;101574.63;;;25.52;50.18
80712;BME280;70078;51.596;5.678;2023-07-13T12:57:29;101566.28;;;25.58;47.87
80712;BME280;70078;51.596;5.678;2023-07-13T12:59:55;101542.06;;;25.67;49.17
80712;BME280;70078;51.596;5.678;2023-07-13T13:02:29;101577.56;;;25.95;47.70
80712;BME280;70078;51.596;5.678;2023-07-13T13:04:56;101538.50;;;25.83;47.28
80712;BME280;70078;51.596;5.678;2023-07-13T13:07:23;101551.69;;;25.69;45.41
80712;BME280;70078;51.596;5.678;2023-07-13T13:09:48;101558.19;;;25.80;46.59
80712;BME280;70078;51.596;5.678;2023-07-13T13:12:14;101571.31;;;26.17;47.99
80712;BME280;70078;51.596;5.678;2023-07-13T13:14:40;101554.53;;;26.13;46.66
80712;BME280;70078;51.596;5.678;2023-07-13T13:17:18;101579.31;;;26.40;45.08
80712;BME280;70078;51.596;5.678;2023-07-13T13:19:44;101570.75;;;26.59;43.95
80712;BME280;70078;51.596;5.678;2023-07-13T13:22:10;101580.59;;;26.54;42.13
80712;BME280;70078;51.596;5.678;2023-07-13T13:24:36;101574.69;;;26.24;42.79
80712;BME280;70078;51.596;5.678;2023-07-13T13:27:01;101583.16;;;26.06;42.09
80712;BME280;70078;51.596;5.678;2023-07-13T13:29:27;101574.06;;;25.50;44.01
80712;BME280;70078;51.596;5.678;2023-07-13T13:31:53;101553.72;;;25.12;43.25
80712;BME280;70078;51.596;5.678;2023-07-13T13:34:21;101592.66;;;25.19;43.94
80712;BME280;70078;51.596;5.678;2023-07-13T13:36:48;101582.69;;;24.84;43.95